sensor_id;sensor_type;location;lat;lon;timestamp;P1;durP1;ratioP1;P2;durP2;ratioP2
75586;SDS011;64164;50.156;14.570;2022-12-15T00:01:36;17.75;;;9.15;;
75586;SDS011;64164;50.156;14.570;2022-12-15T00:04:20;26.85;;;10.07;;
75586;SDS011;64164;50.156;14.570;2022-12-15T00:07:04;10.73;;;5.70;;
75586;SDS011;64164;50.156;14.570;2022-12-15T00:09:48;19.30;;;8.13;;
75586;SDS011;64164;50.156;14.570;2022-12-15T00:12:32;17.13;;;8.48;;
75586;SDS011;64164;50.156;14.570;2022-12-15T00:15:16;24.38;;;8.90;;
75586;SDS011;64164;50.156;14.570;2022-12-15T00:18:04;11.95;;;5.60;;
75586;SDS011;64164;50.156;14.570;2022-12-15T00:20:47;7.85;;;4.68;;
75586;SDS011;64164;50.156;14.570;2022-12-15T00:23:31;16.13;;;8.10;;
75586;SDS011;64164;50.156;14.570;2022-12-15T00:26:15;13.98;;;6.13;;
75586;SDS011;64164;50.156;14.570;2022-12-15T00:28:59;11.35;;;4.95;;
75586;SDS011;64164;50.156;14.570;2022-12-15T00:31:43;15.02;;;7.70;;
75586;SDS011;64164;50.156;14.570;2022-12-15T00:34:28;11.38;;;6.03;;
75586;SDS011;64164;50.156;14.570;2022-12-15T00:37:12;19.85;;;7.47;;
75586;SDS011;64164;50.156;14.570;2022-12-15T00:39:56;20.70;;;6.15;;
75586;SDS011;64164;50.156;14.570;2022-12-15T00:42:28;19.50;;;7.28;;
75586;SDS011;64164;50.156;14.570;2022-12-15T00:44:56;11.95;;;6.50;;
75586;SDS011;64164;50.156;14.570;2022-12-15T00:47:21;13.60;;;7.13;;
75586;SDS011;64164;50.156;14.570;2022-12-15T00:49:46;19.93;;;8.20;;
75586;SDS011;64164;50.156;14.570;2022-12-15T00:52:30;14.15;;;5.70;;
75586;SDS011;64164;50.156;14.570;2022-12-15T00:55:14;16.48;;;5.43;;
75586;SDS011;64164;50.156;14.570;2022-12-15T00:57:58;10.57;;;5.60;;
75586;SDS011;64164;50.156;14.570;2022-12-15T01:00:42;15.98;;;8.25;;
75586;SDS011;64164;50.156;14.570;2022-12-15T01:03:26;15.90;;;8.57;;
75586;SDS011;64164;50.156;14.570;2022-12-15T01:06:12;16.25;;;7.38;;
75586;SDS011;64164;50.156;14.570;2022-12-15T01:08:56;14.43;;;4.25;;
75586;SDS011;64164;50.156;14.570;2022-12-15T01:11:40;15.73;;;7.63;;
75586;SDS011;64164;50.156;14.570;2022-12-15T01:14:25;17.33;;;5.68;;
75586;SDS011;64164;50.156;14.570;2022-12-15T01:17:09;16.13;;;7.38;;
75586;SDS011;64164;50.156;14.570;2022-12-15T01:19:53;13.50;;;6.63;;
75586;SDS011;64164;50.156;14.570;2022-12-15T01:22:37;14.13;;;6.68;;
75586;SDS011;64164;50.156;14.570;2022-12-15T01:25:03;22.05;;;8.93;;
75586;SDS011;64164;50.156;14.570;2022-12-15T01:27:28;17.77;;;7.50;;
75586;SDS011;64164;50.156;14.570;2022-12-15T01:29:53;12.83;;;6.27;;
75586;SDS011;64164;50.156;14.570;2022-12-15T01:32:19;17.17;;;6.87;;
75586;SDS011;64164;50.156;14.570;2022-12-15T01:34:44;18.15;;;9.63;;
75586;SDS011;64164;50.156;14.570;2022-12-15T01:37:09;9.40;;;5.43;;
75586;SDS011;64164;50.156;14.570;2022-12-15T01:39:34;19.63;;;9.43;;
75586;SDS011;64164;50.156;14.570;2022-12-15T01:42:18;12.43;;;6.38;;
75586;SDS011;64164;50.156;14.570;2022-12-15T01:44:45;18.97;;;6.77;;
75586;SDS011;64164;50.156;14.570;2022-12-15T01:47:11;15.23;;;8.07;;
75586;SDS011;64164;50.156;14.570;2022-12-15T01:49:37;14.75;;;7.15;;
75586;SDS011;64164;50.156;14.570;2022-12-15T01:52:03;15.05;;;6.85;;
75586;SDS011;64164;50.156;14.570;2022-12-15T01:54:31;23.65;;;10.05;;
75586;SDS011;64164;50.156;14.570;2022-12-15T01:56:59;23.80;;;7.68;;
75586;SDS011;64164;50.156;14.570;2022-12-15T01:59:28;14.23;;;7.03;;
75586;SDS011;64164;50.156;14.570;2022-12-15T02:01:55;16.85;;;7.70;;
75586;SDS011;64164;50.156;14.570;2022-12-15T02:04:20;9.73;;;4.90;;
75586;SDS011;64164;50.156;14.570;2022-12-15T02:06:46;18.40;;;7.30;;
75586;SDS011;64164;50.156;14.570;2022-12-15T02:09:11;15.27;;;6.27;;
75586;SDS011;64164;50.156;14.570;2022-12-15T02:14:06;22.48;;;8.82;;
75586;SDS011;64164;50.156;14.570;2022-12-15T02:19:28;13.30;;;7.00;;
75586;SDS011;64164;50.156;14.570;2022-12-15T02:27:47;11.02;;;6.35;;
75586;SDS011;64164;50.156;14.570;2022-12-15T02:35:27;10.03;;;3.80;;
75586;SDS011;64164;50.156;14.570;2022-12-15T02:37:55;18.52;;;4.90;;
75586;SDS011;64164;50.156;14.570;2022-12-15T02:40:20;19.77;;;6.17;;
75586;SDS011;64164;50.156;14.570;2022-12-15T02:42:46;17.53;;;5.87;;
75586;SDS011;64164;50.156;14.570;2022-12-15T02:45:13;6.13;;;3.05;;
75586;SDS011;64164;50.156;14.570;2022-12-15T02:47:56;11.27;;;5.03;;
75586;SDS011;64164;50.156;14.570;2022-12-15T03:00:24;11.02;;;3.22;;
75586;SDS011;64164;50.156;14.570;2022-12-15T03:02:50;7.13;;;4.10;;
75586;SDS011;64164;50.156;14.570;2022-12-15T03:05:17;3.83;;;3.50;;
75586;SDS011;64164;50.156;14.570;2022-12-15T03:07:44;11.45;;;4.85;;
75586;SDS011;64164;50.156;14.570;2022-12-15T03:10:10;10.35;;;4.72;;
75586;SDS011;64164;50.156;14.570;2022-12-15T03:12:36;27.60;;;6.00;;
75586;SDS011;64164;50.156;14.570;2022-12-15T03:15:01;10.40;;;4.70;;
75586;SDS011;64164;50.156;14.570;2022-12-15T03:17:26;16.83;;;6.87;;
75586;SDS011;64164;50.156;14.570;2022-12-15T03:19:51;13.33;;;5.23;;
75586;SDS011;64164;50.156;14.570;2022-12-15T03:22:17;9.57;;;5.07;;
75586;SDS011;64164;50.156;14.570;2022-12-15T03:24:42;13.97;;;4.00;;
75586;SDS011;64164;50.156;14.570;2022-12-15T03:27:07;13.57;;;6.13;;
75586;SDS011;64164;50.156;14.570;2022-12-15T03:29:32;10.47;;;4.50;;
75586;SDS011;64164;50.156;14.570;2022-12-15T03:31:58;23.67;;;6.00;;
75586;SDS011;64164;50.156;14.570;2022-12-15T03:34:23;12.50;;;4.67;;
75586;SDS011;64164;50.156;14.570;2022-12-15T03:36:48;12.63;;;4.63;;
75586;SDS011;64164;50.156;14.570;2022-12-15T03:39:13;21.30;;;5.47;;
75586;SDS011;64164;50.156;14.570;2022-12-15T03:41:38;14.70;;;6.07;;
75586;SDS011;64164;50.156;14.570;2022-12-15T03:44:05;9.75;;;5.05;;
75586;SDS011;64164;50.156;14.570;2022-12-15T03:46:30;9.33;;;4.67;;
75586;SDS011;64164;50.156;14.570;2022-12-15T03:48:55;10.90;;;4.37;;
75586;SDS011;64164;50.156;14.570;2022-12-15T03:51:21;9.67;;;4.50;;
75586;SDS011;64164;50.156;14.570;2022-12-15T03:53:46;15.90;;;7.03;;
75586;SDS011;64164;50.156;14.570;2022-12-15T03:56:13;17.08;;;5.55;;
75586;SDS011;64164;50.156;14.570;2022-12-15T03:58:38;15.77;;;6.93;;
75586;SDS011;64164;50.156;14.570;2022-12-15T04:03:35;13.85;;;5.60;;
75586;SDS011;64164;50.156;14.570;2022-12-15T04:06:00;18.93;;;9.30;;
75586;SDS011;64164;50.156;14.570;2022-12-15T04:08:25;11.10;;;4.90;;
75586;SDS011;64164;50.156;14.570;2022-12-15T04:10:50;16.33;;;6.20;;
75586;SDS011;64164;50.156;14.570;2022-12-15T04:13:16;18.77;;;6.43;;
75586;SDS011;64164;50.156;14.570;2022-12-15T04:15:41;16.33;;;5.57;;
75586;SDS011;64164;50.156;14.570;2022-12-15T04:18:07;7.73;;;5.40;;
75586;SDS011;64164;50.156;14.570;2022-12-15T04:20:34;12.35;;;7.03;;
75586;SDS011;64164;50.156;14.570;2022-12-15T04:22:59;14.95;;;6.05;;
75586;SDS011;64164;50.156;14.570;2022-12-15T04:25:25;15.98;;;7.10;;
75586;SDS011;64164;50.156;14.570;2022-12-15T04:28:09;17.23;;;6.45;;
75586;SDS011;64164;50.156;14.570;2022-12-15T04:30:54;13.85;;;8.05;;
75586;SDS011;64164;50.156;14.570;2022-12-15T04:33:40;11.98;;;4.40;;
75586;SDS011;64164;50.156;14.570;2022-12-15T04:36:25;10.80;;;6.30;;
75586;SDS011;64164;50.156;14.570;2022-12-15T04:39:09;14.75;;;4.85;;
75586;SDS011;64164;50.156;14.570;2022-12-15T04:41:53;14.38;;;5.57;;
75586;SDS011;64164;50.156;14.570;2022-12-15T04:44:39;14.55;;;6.30;;
75586;SDS011;64164;50.156;14.570;2022-12-15T04:47:23;9.60;;;5.78;;
75586;SDS011;64164;50.156;14.570;2022-12-15T04:50:07;17.80;;;7.03;;
75586;SDS011;64164;50.156;14.570;2022-12-15T04:52:51;14.07;;;5.43;;
75586;SDS011;64164;50.156;14.570;2022-12-15T04:55:35;9.23;;;3.53;;
75586;SDS011;64164;50.156;14.570;2022-12-15T04:58:19;9.18;;;3.92;;
75586;SDS011;64164;50.156;14.570;2022-12-15T05:01:03;17.45;;;6.70;;
75586;SDS011;64164;50.156;14.570;2022-12-15T05:03:47;13.95;;;7.22;;
75586;SDS011;64164;50.156;14.570;2022-12-15T05:06:31;17.00;;;6.72;;
75586;SDS011;64164;50.156;14.570;2022-12-15T05:09:15;13.98;;;6.95;;
75586;SDS011;64164;50.156;14.570;2022-12-15T05:11:59;13.60;;;5.63;;
75586;SDS011;64164;50.156;14.570;2022-12-15T05:14:43;11.00;;;5.30;;
75586;SDS011;64164;50.156;14.570;2022-12-15T05:17:27;10.38;;;5.60;;
75586;SDS011;64164;50.156;14.570;2022-12-15T05:20:11;25.90;;;9.60;;
75586;SDS011;64164;50.156;14.570;2022-12-15T05:22:55;21.17;;;7.25;;
75586;SDS011;64164;50.156;14.570;2022-12-15T05:25:39;18.38;;;6.88;;
75586;SDS011;64164;50.156;14.570;2022-12-15T05:28:23;16.23;;;6.03;;
75586;SDS011;64164;50.156;14.570;2022-12-15T05:31:07;11.25;;;5.93;;
75586;SDS011;64164;50.156;14.570;2022-12-15T05:33:51;11.52;;;5.05;;
75586;SDS011;64164;50.156;14.570;2022-12-15T05:36:17;11.90;;;6.03;;
75586;SDS011;64164;50.156;14.570;2022-12-15T05:38:42;9.27;;;5.67;;
75586;SDS011;64164;50.156;14.570;2022-12-15T05:41:07;18.40;;;6.83;;
75586;SDS011;64164;50.156;14.570;2022-12-15T05:43:32;16.50;;;5.90;;
75586;SDS011;64164;50.156;14.570;2022-12-15T05:46:01;15.57;;;7.83;;
75586;SDS011;64164;50.156;14.570;2022-12-15T05:48:26;12.50;;;5.18;;
75586;SDS011;64164;50.156;14.570;2022-12-15T05:50:52;10.33;;;4.90;;
75586;SDS011;64164;50.156;14.570;2022-12-15T05:53:17;7.40;;;3.23;;
75586;SDS011;64164;50.156;14.570;2022-12-15T05:55:42;18.57;;;6.60;;
75586;SDS011;64164;50.156;14.570;2022-12-15T05:58:07;8.13;;;3.63;;
75586;SDS011;64164;50.156;14.570;2022-12-15T06:00:32;12.60;;;7.13;;
75586;SDS011;64164;50.156;14.570;2022-12-15T06:02:58;23.33;;;6.87;;
75586;SDS011;64164;50.156;14.570;2022-12-15T06:05:23;12.00;;;7.47;;
75586;SDS011;64164;50.156;14.570;2022-12-15T06:07:48;12.70;;;5.73;;
75586;SDS011;64164;50.156;14.570;2022-12-15T06:10:13;23.95;;;9.73;;
75586;SDS011;64164;50.156;14.570;2022-12-15T06:12:38;17.08;;;9.07;;
75586;SDS011;64164;50.156;14.570;2022-12-15T06:15:04;15.90;;;9.20;;
75586;SDS011;64164;50.156;14.570;2022-12-15T06:17:30;16.52;;;6.53;;
75586;SDS011;64164;50.156;14.570;2022-12-15T06:19:55;18.75;;;9.20;;
75586;SDS011;64164;50.156;14.570;2022-12-15T06:22:21;17.77;;;7.93;;
75586;SDS011;64164;50.156;14.570;2022-12-15T06:24:46;14.40;;;7.63;;
75586;SDS011;64164;50.156;14.570;2022-12-15T06:27:11;15.87;;;6.97;;
75586;SDS011;64164;50.156;14.570;2022-12-15T06:29:36;18.53;;;8.97;;
75586;SDS011;64164;50.156;14.570;2022-12-15T06:32:01;14.37;;;7.40;;
75586;SDS011;64164;50.156;14.570;2022-12-15T06:34:28;16.20;;;7.72;;
75586;SDS011;64164;50.156;14.570;2022-12-15T06:36:53;22.00;;;9.60;;
75586;SDS011;64164;50.156;14.570;2022-12-15T06:39:18;16.77;;;6.43;;
75586;SDS011;64164;50.156;14.570;2022-12-15T06:41:44;12.45;;;7.03;;
75586;SDS011;64164;50.156;14.570;2022-12-15T06:44:13;18.47;;;7.10;;
75586;SDS011;64164;50.156;14.570;2022-12-15T06:46:38;27.02;;;10.23;;
75586;SDS011;64164;50.156;14.570;2022-12-15T06:49:04;21.47;;;9.40;;
75586;SDS011;64164;50.156;14.570;2022-12-15T06:51:29;14.53;;;8.03;;
75586;SDS011;64164;50.156;14.570;2022-12-15T06:53:54;18.63;;;10.37;;
75586;SDS011;64164;50.156;14.570;2022-12-15T06:56:24;23.70;;;11.50;;
75586;SDS011;64164;50.156;14.570;2022-12-15T06:58:50;18.90;;;8.65;;
75586;SDS011;64164;50.156;14.570;2022-12-15T07:01:16;25.48;;;8.63;;
75586;SDS011;64164;50.156;14.570;2022-12-15T07:03:42;22.90;;;11.07;;
75586;SDS011;64164;50.156;14.570;2022-12-15T07:06:08;19.50;;;8.57;;
75586;SDS011;64164;50.156;14.570;2022-12-15T07:08:34;13.35;;;6.60;;
75586;SDS011;64164;50.156;14.570;2022-12-15T07:11:01;23.35;;;7.93;;
75586;SDS011;64164;50.156;14.570;2022-12-15T07:13:26;16.70;;;8.88;;
75586;SDS011;64164;50.156;14.570;2022-12-15T07:15:52;19.30;;;5.93;;
75586;SDS011;64164;50.156;14.570;2022-12-15T07:18:17;18.60;;;6.10;;
75586;SDS011;64164;50.156;14.570;2022-12-15T07:20:42;21.17;;;9.00;;
75586;SDS011;64164;50.156;14.570;2022-12-15T07:23:08;17.38;;;8.13;;
75586;SDS011;64164;50.156;14.570;2022-12-15T07:25:36;15.65;;;7.07;;
75586;SDS011;64164;50.156;14.570;2022-12-15T07:28:02;13.13;;;6.45;;
75586;SDS011;64164;50.156;14.570;2022-12-15T07:30:27;17.37;;;7.30;;
75586;SDS011;64164;50.156;14.570;2022-12-15T07:32:52;15.37;;;8.43;;
75586;SDS011;64164;50.156;14.570;2022-12-15T07:35:18;17.00;;;8.53;;
75586;SDS011;64164;50.156;14.570;2022-12-15T07:37:43;16.53;;;8.33;;
75586;SDS011;64164;50.156;14.570;2022-12-15T07:40:08;19.87;;;11.00;;
75586;SDS011;64164;50.156;14.570;2022-12-15T07:42:33;20.30;;;11.18;;
75586;SDS011;64164;50.156;14.570;2022-12-15T07:44:59;18.30;;;7.47;;
75586;SDS011;64164;50.156;14.570;2022-12-15T07:47:24;24.90;;;9.73;;
75586;SDS011;64164;50.156;14.570;2022-12-15T07:49:49;20.07;;;9.07;;
75586;SDS011;64164;50.156;14.570;2022-12-15T07:52:14;14.13;;;8.53;;
75586;SDS011;64164;50.156;14.570;2022-12-15T07:54:40;13.60;;;7.93;;
75586;SDS011;64164;50.156;14.570;2022-12-15T07:57:05;15.00;;;7.23;;
75586;SDS011;64164;50.156;14.570;2022-12-15T07:59:32;23.27;;;9.25;;
75586;SDS011;64164;50.156;14.570;2022-12-15T08:01:57;17.48;;;6.97;;
75586;SDS011;64164;50.156;14.570;2022-12-15T08:04:24;24.42;;;8.73;;
75586;SDS011;64164;50.156;14.570;2022-12-15T08:06:49;13.93;;;7.10;;
75586;SDS011;64164;50.156;14.570;2022-12-15T08:09:15;13.88;;;7.35;;
75586;SDS011;64164;50.156;14.570;2022-12-15T08:11:40;14.47;;;7.53;;
75586;SDS011;64164;50.156;14.570;2022-12-15T08:14:05;15.40;;;8.43;;
75586;SDS011;64164;50.156;14.570;2022-12-15T08:16:30;15.97;;;7.33;;
75586;SDS011;64164;50.156;14.570;2022-12-15T08:18:58;14.57;;;7.35;;
75586;SDS011;64164;50.156;14.570;2022-12-15T08:21:23;12.30;;;6.03;;
75586;SDS011;64164;50.156;14.570;2022-12-15T08:23:48;27.70;;;7.27;;
75586;SDS011;64164;50.156;14.570;2022-12-15T08:26:14;19.13;;;7.73;;
75586;SDS011;64164;50.156;14.570;2022-12-15T08:28:40;18.67;;;7.07;;
75586;SDS011;64164;50.156;14.570;2022-12-15T08:31:10;17.02;;;7.38;;
75586;SDS011;64164;50.156;14.570;2022-12-15T08:33:35;11.52;;;6.65;;
75586;SDS011;64164;50.156;14.570;2022-12-15T08:36:02;15.32;;;6.82;;
75586;SDS011;64164;50.156;14.570;2022-12-15T08:38:28;17.63;;;7.45;;
75586;SDS011;64164;50.156;14.570;2022-12-15T08:40:53;13.82;;;7.95;;
75586;SDS011;64164;50.156;14.570;2022-12-15T08:43:19;11.67;;;5.47;;
75586;SDS011;64164;50.156;14.570;2022-12-15T08:45:44;12.57;;;6.32;;
75586;SDS011;64164;50.156;14.570;2022-12-15T08:48:09;11.00;;;6.30;;
75586;SDS011;64164;50.156;14.570;2022-12-15T08:50:34;9.33;;;6.13;;
75586;SDS011;64164;50.156;14.570;2022-12-15T08:53:00;17.67;;;6.82;;
75586;SDS011;64164;50.156;14.570;2022-12-15T08:55:25;20.70;;;7.07;;
75586;SDS011;64164;50.156;14.570;2022-12-15T08:57:50;10.90;;;5.47;;
75586;SDS011;64164;50.156;14.570;2022-12-15T09:00:17;18.65;;;8.70;;
75586;SDS011;64164;50.156;14.570;2022-12-15T09:02:42;12.63;;;6.17;;
75586;SDS011;64164;50.156;14.570;2022-12-15T09:05:08;11.25;;;6.60;;
75586;SDS011;64164;50.156;14.570;2022-12-15T09:07:33;14.27;;;8.70;;
75586;SDS011;64164;50.156;14.570;2022-12-15T09:09:58;13.80;;;8.03;;
75586;SDS011;64164;50.156;14.570;2022-12-15T09:12:23;13.87;;;7.70;;
75586;SDS011;64164;50.156;14.570;2022-12-15T09:14:48;20.83;;;7.80;;
75586;SDS011;64164;50.156;14.570;2022-12-15T09:17:14;18.47;;;6.27;;
75586;SDS011;64164;50.156;14.570;2022-12-15T09:19:39;16.13;;;7.88;;
75586;SDS011;64164;50.156;14.570;2022-12-15T09:22:04;20.13;;;9.47;;
75586;SDS011;64164;50.156;14.570;2022-12-15T09:24:31;21.17;;;9.55;;
75586;SDS011;64164;50.156;14.570;2022-12-15T09:26:57;18.23;;;9.40;;
75586;SDS011;64164;50.156;14.570;2022-12-15T09:29:22;17.60;;;8.73;;
75586;SDS011;64164;50.156;14.570;2022-12-15T09:31:47;26.53;;;11.07;;
75586;SDS011;64164;50.156;14.570;2022-12-15T09:34:13;12.00;;;6.67;;
75586;SDS011;64164;50.156;14.570;2022-12-15T09:36:39;14.75;;;9.02;;
75586;SDS011;64164;50.156;14.570;2022-12-15T09:39:05;27.27;;;8.57;;
75586;SDS011;64164;50.156;14.570;2022-12-15T09:41:31;26.38;;;10.27;;
75586;SDS011;64164;50.156;14.570;2022-12-15T09:43:58;18.48;;;8.48;;
75586;SDS011;64164;50.156;14.570;2022-12-15T09:51:42;30.77;;;12.85;;
75586;SDS011;64164;50.156;14.570;2022-12-15T09:54:09;31.55;;;12.50;;
75586;SDS011;64164;50.156;14.570;2022-12-15T09:56:37;23.15;;;12.20;;
75586;SDS011;64164;50.156;14.570;2022-12-15T10:04:18;28.90;;;13.68;;
75586;SDS011;64164;50.156;14.570;2022-12-15T10:06:57;25.15;;;13.15;;
75586;SDS011;64164;50.156;14.570;2022-12-15T10:09:24;25.27;;;13.18;;
75586;SDS011;64164;50.156;14.570;2022-12-15T10:11:59;38.28;;;15.50;;
75586;SDS011;64164;50.156;14.570;2022-12-15T10:14:29;32.65;;;13.70;;
75586;SDS011;64164;50.156;14.570;2022-12-15T10:17:01;35.20;;;16.00;;
75586;SDS011;64164;50.156;14.570;2022-12-15T10:19:33;27.20;;;14.07;;
75586;SDS011;64164;50.156;14.570;2022-12-15T10:22:00;35.70;;;16.83;;
75586;SDS011;64164;50.156;14.570;2022-12-15T10:24:27;30.40;;;15.20;;
75586;SDS011;64164;50.156;14.570;2022-12-15T10:29:43;38.00;;;14.82;;
75586;SDS011;64164;50.156;14.570;2022-12-15T10:32:20;34.75;;;16.05;;
75586;SDS011;64164;50.156;14.570;2022-12-15T10:34:46;37.20;;;17.60;;
75586;SDS011;64164;50.156;14.570;2022-12-15T10:37:19;36.93;;;18.47;;
75586;SDS011;64164;50.156;14.570;2022-12-15T10:39:47;40.92;;;19.05;;
75586;SDS011;64164;50.156;14.570;2022-12-15T10:42:17;42.08;;;20.52;;
75586;SDS011;64164;50.156;14.570;2022-12-15T10:44:45;40.58;;;17.92;;
75586;SDS011;64164;50.156;14.570;2022-12-15T10:47:15;35.70;;;17.40;;
75586;SDS011;64164;50.156;14.570;2022-12-15T10:49:40;38.13;;;17.77;;
75586;SDS011;64164;50.156;14.570;2022-12-15T10:52:07;40.23;;;18.00;;
75586;SDS011;64164;50.156;14.570;2022-12-15T10:54:42;45.83;;;20.42;;
75586;SDS011;64164;50.156;14.570;2022-12-15T10:59:40;49.13;;;22.30;;
75586;SDS011;64164;50.156;14.570;2022-12-15T11:07:25;49.60;;;23.85;;
75586;SDS011;64164;50.156;14.570;2022-12-15T11:09:56;51.05;;;22.17;;
75586;SDS011;64164;50.156;14.570;2022-12-15T11:12:22;44.47;;;20.42;;
75586;SDS011;64164;50.156;14.570;2022-12-15T11:17:45;41.90;;;21.00;;
75586;SDS011;64164;50.156;14.570;2022-12-15T11:20:13;45.50;;;19.60;;
75586;SDS011;64164;50.156;14.570;2022-12-15T11:22:45;42.40;;;18.65;;
75586;SDS011;64164;50.156;14.570;2022-12-15T11:27:57;48.78;;;20.27;;
75586;SDS011;64164;50.156;14.570;2022-12-15T11:30:25;56.40;;;25.92;;
75586;SDS011;64164;50.156;14.570;2022-12-15T11:32:54;59.47;;;22.88;;
75586;SDS011;64164;50.156;14.570;2022-12-15T11:35:24;53.65;;;22.13;;
75586;SDS011;64164;50.156;14.570;2022-12-15T11:37:55;50.05;;;22.77;;
75586;SDS011;64164;50.156;14.570;2022-12-15T11:48:14;53.33;;;21.25;;
75586;SDS011;64164;50.156;14.570;2022-12-15T11:50:53;53.15;;;20.85;;
75586;SDS011;64164;50.156;14.570;2022-12-15T12:06:28;52.80;;;22.57;;
75586;SDS011;64164;50.156;14.570;2022-12-15T12:11:27;56.05;;;24.83;;
75586;SDS011;64164;50.156;14.570;2022-12-15T12:21:34;55.23;;;22.10;;
75586;SDS011;64164;50.156;14.570;2022-12-15T12:29:17;47.13;;;20.73;;
75586;SDS011;64164;50.156;14.570;2022-12-15T12:36:47;48.07;;;20.10;;
75586;SDS011;64164;50.156;14.570;2022-12-15T12:39:18;45.33;;;21.33;;
75586;SDS011;64164;50.156;14.570;2022-12-15T12:41:50;39.03;;;18.13;;
75586;SDS011;64164;50.156;14.570;2022-12-15T12:46:46;44.60;;;18.73;;
75586;SDS011;64164;50.156;14.570;2022-12-15T12:49:13;48.60;;;20.30;;
75586;SDS011;64164;50.156;14.570;2022-12-15T12:51:41;44.85;;;21.60;;
75586;SDS011;64164;50.156;14.570;2022-12-15T12:54:38;52.38;;;22.63;;
75586;SDS011;64164;50.156;14.570;2022-12-15T12:59:36;49.05;;;20.27;;
75586;SDS011;64164;50.156;14.570;2022-12-15T13:04:40;48.13;;;21.15;;
75586;SDS011;64164;50.156;14.570;2022-12-15T13:10:00;39.60;;;19.60;;
75586;SDS011;64164;50.156;14.570;2022-12-15T13:14:58;50.22;;;20.92;;
75586;SDS011;64164;50.156;14.570;2022-12-15T13:17:28;39.40;;;17.33;;
75586;SDS011;64164;50.156;14.570;2022-12-15T13:22:35;38.72;;;16.60;;
75586;SDS011;64164;50.156;14.570;2022-12-15T13:25:01;43.55;;;19.38;;
75586;SDS011;64164;50.156;14.570;2022-12-15T13:27:34;32.28;;;18.02;;
75586;SDS011;64164;50.156;14.570;2022-12-15T13:32:32;46.15;;;19.95;;
75586;SDS011;64164;50.156;14.570;2022-12-15T13:35:00;37.75;;;18.50;;
75586;SDS011;64164;50.156;14.570;2022-12-15T13:37:48;39.30;;;17.42;;
75586;SDS011;64164;50.156;14.570;2022-12-15T13:40:57;35.85;;;16.40;;
75586;SDS011;64164;50.156;14.570;2022-12-15T13:45:46;38.70;;;17.17;;
75586;SDS011;64164;50.156;14.570;2022-12-15T13:48:15;35.97;;;16.08;;
75586;SDS011;64164;50.156;14.570;2022-12-15T13:53:17;37.72;;;15.48;;
75586;SDS011;64164;50.156;14.570;2022-12-15T13:55:53;41.20;;;18.55;;
75586;SDS011;64164;50.156;14.570;2022-12-15T13:58:19;37.50;;;17.52;;
75586;SDS011;64164;50.156;14.570;2022-12-15T14:00:50;39.83;;;18.60;;
75586;SDS011;64164;50.156;14.570;2022-12-15T14:03:16;37.60;;;17.52;;
75586;SDS011;64164;50.156;14.570;2022-12-15T14:05:46;39.47;;;16.20;;
75586;SDS011;64164;50.156;14.570;2022-12-15T14:08:12;35.55;;;17.70;;
75586;SDS011;64164;50.156;14.570;2022-12-15T14:10:39;36.60;;;17.67;;
75586;SDS011;64164;50.156;14.570;2022-12-15T14:15:53;34.65;;;15.23;;
75586;SDS011;64164;50.156;14.570;2022-12-15T14:20:51;32.67;;;12.73;;
75586;SDS011;64164;50.156;14.570;2022-12-15T14:23:17;33.80;;;16.92;;
75586;SDS011;64164;50.156;14.570;2022-12-15T14:25:51;45.72;;;20.35;;
75586;SDS011;64164;50.156;14.570;2022-12-15T14:28:26;39.17;;;19.25;;
75586;SDS011;64164;50.156;14.570;2022-12-15T14:30:51;38.42;;;17.33;;
75586;SDS011;64164;50.156;14.570;2022-12-15T14:33:17;39.97;;;18.60;;
75586;SDS011;64164;50.156;14.570;2022-12-15T14:35:43;44.93;;;16.83;;
75586;SDS011;64164;50.156;14.570;2022-12-15T14:38:16;46.20;;;20.27;;
75586;SDS011;64164;50.156;14.570;2022-12-15T14:40:41;32.42;;;14.80;;
75586;SDS011;64164;50.156;14.570;2022-12-15T14:43:11;32.15;;;15.55;;
75586;SDS011;64164;50.156;14.570;2022-12-15T14:45:40;31.33;;;14.23;;
75586;SDS011;64164;50.156;14.570;2022-12-15T14:48:06;36.23;;;12.93;;
75586;SDS011;64164;50.156;14.570;2022-12-15T14:50:31;30.98;;;14.52;;
75586;SDS011;64164;50.156;14.570;2022-12-15T14:53:04;32.20;;;14.80;;
75586;SDS011;64164;50.156;14.570;2022-12-15T14:55:31;24.40;;;13.18;;
75586;SDS011;64164;50.156;14.570;2022-12-15T14:57:58;34.88;;;13.32;;
75586;SDS011;64164;50.156;14.570;2022-12-15T15:05:37;23.67;;;12.18;;
75586;SDS011;64164;50.156;14.570;2022-12-15T15:08:03;28.50;;;13.20;;
75586;SDS011;64164;50.156;14.570;2022-12-15T15:10:28;17.90;;;9.33;;
75586;SDS011;64164;50.156;14.570;2022-12-15T15:12:53;30.13;;;11.55;;
75586;SDS011;64164;50.156;14.570;2022-12-15T15:15:20;25.77;;;13.03;;
75586;SDS011;64164;50.156;14.570;2022-12-15T15:17:49;33.75;;;14.05;;
75586;SDS011;64164;50.156;14.570;2022-12-15T15:22:44;22.85;;;11.57;;
75586;SDS011;64164;50.156;14.570;2022-12-15T15:27:50;22.95;;;9.60;;
75586;SDS011;64164;50.156;14.570;2022-12-15T15:32:51;22.13;;;11.47;;
75586;SDS011;64164;50.156;14.570;2022-12-15T15:35:17;23.05;;;8.45;;
75586;SDS011;64164;50.156;14.570;2022-12-15T15:37:43;19.55;;;9.48;;
75586;SDS011;64164;50.156;14.570;2022-12-15T15:40:09;17.07;;;8.83;;
75586;SDS011;64164;50.156;14.570;2022-12-15T15:42:35;19.83;;;8.02;;
75586;SDS011;64164;50.156;14.570;2022-12-15T15:45:01;20.93;;;9.10;;
75586;SDS011;64164;50.156;14.570;2022-12-15T15:47:26;23.30;;;10.27;;
75586;SDS011;64164;50.156;14.570;2022-12-15T15:49:51;15.37;;;9.23;;
75586;SDS011;64164;50.156;14.570;2022-12-15T15:52:17;21.42;;;9.85;;
75586;SDS011;64164;50.156;14.570;2022-12-15T15:54:42;24.53;;;8.83;;
75586;SDS011;64164;50.156;14.570;2022-12-15T15:57:15;26.27;;;9.05;;
75586;SDS011;64164;50.156;14.570;2022-12-15T15:59:41;17.52;;;9.45;;
75586;SDS011;64164;50.156;14.570;2022-12-15T16:02:08;15.98;;;7.30;;
75586;SDS011;64164;50.156;14.570;2022-12-15T16:04:33;15.05;;;8.30;;
75586;SDS011;64164;50.156;14.570;2022-12-15T16:07:01;30.20;;;10.30;;
75586;SDS011;64164;50.156;14.570;2022-12-15T16:09:27;23.42;;;10.05;;
75586;SDS011;64164;50.156;14.570;2022-12-15T16:11:52;20.77;;;9.47;;
75586;SDS011;64164;50.156;14.570;2022-12-15T16:14:17;31.70;;;13.23;;
75586;SDS011;64164;50.156;14.570;2022-12-15T16:16:43;18.17;;;9.93;;
75586;SDS011;64164;50.156;14.570;2022-12-15T16:19:08;19.83;;;9.30;;
75586;SDS011;64164;50.156;14.570;2022-12-15T16:21:36;22.30;;;10.68;;
75586;SDS011;64164;50.156;14.570;2022-12-15T16:24:08;29.45;;;11.60;;
75586;SDS011;64164;50.156;14.570;2022-12-15T16:26:34;17.95;;;9.93;;
75586;SDS011;64164;50.156;14.570;2022-12-15T16:29:05;20.52;;;10.13;;
75586;SDS011;64164;50.156;14.570;2022-12-15T16:31:35;26.35;;;10.10;;
75586;SDS011;64164;50.156;14.570;2022-12-15T16:34:01;16.17;;;8.53;;
75586;SDS011;64164;50.156;14.570;2022-12-15T16:36:26;23.02;;;13.38;;
75586;SDS011;64164;50.156;14.570;2022-12-15T16:38:52;22.80;;;10.33;;
75586;SDS011;64164;50.156;14.570;2022-12-15T16:41:17;19.53;;;7.63;;
75586;SDS011;64164;50.156;14.570;2022-12-15T16:43:42;19.73;;;9.15;;
75586;SDS011;64164;50.156;14.570;2022-12-15T16:46:11;26.58;;;10.30;;
75586;SDS011;64164;50.156;14.570;2022-12-15T16:48:36;33.33;;;11.93;;
75586;SDS011;64164;50.156;14.570;2022-12-15T16:51:02;22.63;;;11.23;;